Terminal Aerodrome Forecast
Issued by NWS

Home | Current Version | Previous Version | Graphics & Text | Print | Product List | Glossary Off
Versions: 1 2 3 4 5 6 7 8 9 10 11 12 13 14 15 16 17 18 19 20 21 22

000
FTUS43 KBIS 302300
TAFMOT
TAF
KMOT 302320Z 0100/0124 05008KT 3SM SHRA BR OVC004
     FM010400 24010KT 2SM -SHRA BR OVC002
     FM011300 27015G23KT P6SM SCT005 BKN015 OVC035
     FM011900 27017G25KT P6SM BKN035=

USA.gov is the U.S. government's official web portal to all federal, state and local government web resources and services.